createdAt,value
2022-08-26T00:02:11.789Z,83.14
2022-08-26T00:04:41.508Z,83.25
2022-08-26T00:07:11.447Z,83.08
2022-08-26T00:09:40.361Z,83.14
2022-08-26T00:12:12.311Z,83.03
2022-08-26T00:14:41.244Z,83.12
2022-08-26T00:17:09.268Z,83.01
2022-08-26T00:19:37.311Z,83.12
2022-08-26T00:22:07.638Z,83.38
2022-08-26T00:24:35.678Z,83.42
2022-08-26T00:27:03.817Z,83.43
2022-08-26T00:29:37.440Z,83.17
2022-08-26T00:32:06.381Z,83.12
2022-08-26T00:34:34.897Z,83.05
2022-08-26T00:37:03.184Z,83.30
2022-08-26T00:39:33.017Z,82.97
2022-08-26T00:42:01.042Z,83.18
2022-08-26T00:44:30.421Z,82.92
2022-08-26T00:47:03.866Z,82.98
2022-08-26T00:49:38.311Z,82.90
2022-08-26T00:52:09.990Z,82.91
2022-08-26T00:54:46.896Z,83.30
2022-08-26T00:57:18.385Z,83.62
2022-08-26T00:59:48.290Z,83.72
2022-08-26T01:02:21.338Z,84.11
2022-08-26T01:04:55.596Z,84.50
2022-08-26T01:07:25.521Z,84.72
2022-08-26T01:09:56.285Z,85.41
2022-08-26T01:12:26.470Z,85.52
2022-08-26T01:14:55.089Z,85.46
2022-08-26T01:17:23.269Z,85.60
2022-08-26T01:19:53.964Z,85.77
2022-08-26T01:22:28.673Z,86.28
2022-08-26T01:24:59.725Z,86.06
2022-08-26T01:27:32.717Z,86.02
2022-08-26T01:30:02.850Z,86.07
2022-08-26T01:32:34.386Z,86.54
2022-08-26T01:35:02.925Z,86.81
2022-08-26T01:37:36.949Z,87.42
2022-08-26T01:40:14.926Z,87.62
2022-08-26T01:42:46.923Z,87.76
2022-08-26T01:45:19.968Z,88.12
2022-08-26T01:47:49.858Z,88.46
2022-08-26T01:50:30.257Z,88.36
2022-08-26T01:53:01.802Z,88.83
2022-08-26T01:55:34.046Z,89.06
2022-08-26T01:58:07.457Z,88.93
2022-08-26T02:00:36.507Z,89.23
2022-08-26T02:03:18.767Z,89.72
2022-08-26T02:05:51.322Z,89.74
2022-08-26T02:08:24.505Z,89.85
2022-08-26T02:10:54.839Z,89.81
2022-08-26T02:13:24.412Z,90.48
2022-08-26T02:15:52.855Z,90.66
2022-08-26T02:18:21.028Z,91.07
2022-08-26T02:20:53.961Z,91.28
2022-08-26T02:23:21.906Z,91.33
2022-08-26T02:25:59.278Z,91.58
2022-08-26T02:28:32.025Z,91.41
2022-08-26T02:31:00.695Z,91.29
2022-08-26T02:33:31.116Z,91.30
2022-08-26T02:35:59.173Z,91.32
2022-08-26T02:38:27.971Z,91.27
2022-08-26T02:40:57.337Z,91.39
2022-08-26T02:43:31.652Z,91.54
2022-08-26T02:46:02.528Z,91.17
2022-08-26T02:48:31.476Z,91.21
2022-08-26T02:51:01.967Z,91.37
2022-08-26T02:53:31.815Z,91.63
2022-08-26T02:56:02.031Z,91.87
2022-08-26T02:58:31.598Z,91.97
2022-08-26T03:00:59.664Z,91.89
2022-08-26T03:03:30.241Z,92.21
2022-08-26T03:05:58.874Z,92.13
2022-08-26T03:08:26.740Z,92.41
2022-08-26T03:10:55.496Z,92.45
2022-08-26T03:13:25.440Z,92.27
2022-08-26T03:15:53.358Z,92.10
2022-08-26T03:18:21.305Z,92.41
2022-08-26T03:20:49.528Z,92.77
2022-08-26T03:23:17.542Z,93.05
2022-08-26T03:25:50.490Z,93.20
2022-08-26T03:28:18.469Z,92.92
2022-08-26T03:30:49.289Z,92.86
2022-08-26T03:33:19.337Z,92.89
2022-08-26T03:35:50.525Z,92.77
2022-08-26T03:38:19.362Z,92.76
2022-08-26T03:40:47.781Z,92.72
2022-08-26T03:43:17.278Z,92.99
2022-08-26T03:45:46.062Z,92.90
2022-08-26T03:48:16.317Z,93.18
2022-08-26T03:50:44.258Z,93.25
2022-08-26T03:53:12.950Z,93.12
2022-08-26T03:55:42.213Z,92.99
2022-08-26T03:58:11.378Z,92.64
2022-08-26T04:00:39.579Z,92.70
2022-08-26T04:03:09.730Z,92.65
2022-08-26T04:05:39.473Z,92.47
2022-08-26T04:08:08.404Z,92.26
2022-08-26T04:10:39.081Z,92.03
2022-08-26T04:13:07.364Z,91.79
2022-08-26T04:15:35.803Z,91.72
2022-08-26T04:18:04.271Z,91.68
2022-08-26T04:20:32.723Z,92.01
2022-08-26T04:23:02.386Z,92.08
2022-08-26T04:25:30.394Z,92.18
2022-08-26T04:27:58.287Z,92.48
2022-08-26T04:30:26.494Z,92.77
2022-08-26T04:32:54.420Z,93.25
2022-08-26T04:35:25.756Z,93.75
2022-08-26T04:37:54.440Z,93.81
2022-08-26T04:40:24.223Z,94.22
2022-08-26T04:42:53.791Z,94.25
2022-08-26T04:45:22.895Z,94.51
2022-08-26T04:47:54.730Z,95.28
2022-08-26T04:50:23.790Z,95.52
2022-08-26T04:52:52.971Z,95.52
2022-08-26T04:55:20.874Z,95.96
2022-08-26T04:57:55.189Z,96.25
2022-08-26T05:00:23.405Z,96.15
2022-08-26T05:02:54.373Z,96.39
2022-08-26T05:05:22.610Z,96.73
2022-08-26T05:07:50.545Z,96.78
2022-08-26T05:10:18.965Z,97.02
2022-08-26T05:12:47.534Z,97.22
2022-08-26T05:15:17.314Z,97.29
2022-08-26T05:17:45.382Z,97.44
2022-08-26T05:20:13.405Z,97.34
2022-08-26T05:22:41.461Z,97.55
2022-08-26T05:25:10.559Z,97.59
2022-08-26T05:27:38.641Z,97.55
2022-08-26T05:30:08.378Z,97.65
2022-08-26T05:32:38.195Z,97.46
2022-08-26T05:35:08.891Z,97.40
2022-08-26T05:37:38.548Z,97.44
2022-08-26T05:40:07.945Z,97.39
2022-08-26T05:42:36.452Z,97.37
2022-08-26T05:45:05.108Z,97.12
2022-08-26T05:47:32.985Z,97.13
2022-08-26T05:50:05.687Z,97.28
2022-08-26T05:52:34.714Z,97.37
2022-08-26T05:55:02.772Z,97.30
2022-08-26T05:57:30.946Z,97.16
2022-08-26T05:59:59.184Z,96.80
2022-08-26T06:02:27.369Z,96.48
2022-08-26T06:04:55.544Z,96.00
2022-08-26T06:07:45.140Z,95.68
2022-08-26T06:10:32.618Z,95.05
2022-08-26T06:13:06.166Z,94.30
2022-08-26T06:15:43.138Z,94.16
2022-08-26T06:18:14.049Z,93.95
2022-08-26T06:20:57.407Z,93.34
2022-08-26T06:23:47.093Z,93.02
2022-08-26T06:26:16.467Z,92.59
2022-08-26T06:28:45.793Z,92.21
2022-08-26T06:31:18.916Z,91.75
2022-08-26T06:33:47.229Z,90.82
2022-08-26T06:36:20.678Z,89.59
2022-08-26T06:38:51.416Z,88.36
2022-08-26T06:41:22.826Z,87.17
2022-08-26T06:43:51.205Z,85.48
2022-08-26T06:46:21.636Z,84.27
2022-08-26T06:48:50.360Z,79.07
2022-08-26T06:51:22.350Z,79.19
2022-08-26T06:53:54.639Z,78.74
2022-08-26T06:56:25.707Z,78.66
2022-08-26T06:58:54.262Z,78.36
2022-08-26T07:01:26.581Z,77.29
2022-08-26T07:03:57.369Z,76.00
2022-08-26T07:06:26.535Z,74.95
2022-08-26T07:09:03.607Z,75.06
2022-08-26T07:11:33.556Z,74.01
2022-08-26T07:14:01.553Z,72.68
2022-08-26T07:16:30.263Z,71.71
2022-08-26T07:18:59.420Z,71.58
2022-08-26T07:21:29.898Z,71.22
2022-08-26T07:24:01.381Z,71.04
2022-08-26T07:26:31.609Z,70.79
2022-08-26T07:29:01.298Z,70.40
2022-08-26T07:31:37.373Z,69.69
2022-08-26T07:34:09.432Z,69.98
2022-08-26T07:36:37.667Z,68.76
2022-08-26T07:39:07.916Z,68.27
2022-08-26T07:41:36.705Z,65.83
2022-08-26T07:44:04.960Z,63.51
2022-08-26T07:46:33.588Z,62.87
2022-08-26T07:49:02.003Z,63.24
2022-08-26T07:51:31.527Z,61.85
2022-08-26T07:53:59.533Z,60.22
2022-08-26T07:56:29.531Z,59.56
2022-08-26T07:58:57.410Z,59.99
2022-08-26T08:01:27.016Z,59.98
2022-08-26T08:03:56.333Z,57.90
2022-08-26T08:06:28.310Z,54.87
2022-08-26T08:08:57.264Z,54.72
2022-08-26T08:11:27.283Z,54.28
2022-08-26T08:13:57.142Z,54.32
2022-08-26T08:16:26.349Z,55.15
2022-08-26T08:18:54.649Z,54.57
2022-08-26T08:21:24.413Z,53.19
2022-08-26T08:23:53.409Z,51.79
2022-08-26T08:26:22.086Z,51.87
2022-08-26T08:28:50.240Z,52.08
2022-08-26T08:31:52.037Z,52.43
2022-08-26T08:34:13.012Z,53.40
2022-08-26T08:36:41.010Z,52.99
2022-08-26T08:39:09.690Z,51.13
2022-08-26T08:41:46.514Z,47.03
2022-08-26T08:44:20.070Z,47.27
2022-08-26T08:46:53.413Z,45.97
2022-08-26T08:49:22.005Z,43.23
2022-08-26T08:51:56.575Z,44.63
2022-08-26T08:54:26.419Z,45.11
2022-08-26T08:57:02.919Z,44.30
2022-08-26T08:59:34.639Z,44.57
2022-08-26T09:02:12.365Z,44.76
2022-08-26T09:05:06.656Z,43.28
2022-08-26T09:07:40.231Z,44.02
2022-08-26T09:10:27.668Z,41.62
2022-08-26T09:12:55.951Z,41.35
2022-08-26T09:15:30.168Z,40.93
2022-08-26T09:18:11.119Z,39.92
2022-08-26T09:20:50.609Z,39.12
2022-08-26T09:23:19.285Z,38.96
2022-08-26T09:25:50.165Z,37.97
2022-08-26T09:28:20.369Z,37.81
2022-08-26T09:31:01.326Z,37.69
2022-08-26T09:33:33.394Z,37.30
2022-08-26T09:36:22.668Z,36.81
2022-08-26T09:38:51.668Z,36.60
2022-08-26T09:41:26.904Z,36.24
2022-08-26T09:44:16.002Z,37.14
2022-08-26T09:46:48.373Z,37.33
2022-08-26T09:49:30.673Z,37.61
2022-08-26T09:52:20.878Z,37.85
2022-08-26T09:55:03.639Z,37.64
2022-08-26T09:57:34.079Z,38.79
2022-08-26T10:00:02.762Z,38.06
2022-08-26T10:02:39.492Z,37.62
2022-08-26T10:05:17.078Z,37.67
2022-08-26T10:07:47.730Z,37.09
2022-08-26T10:10:22.007Z,36.75
2022-08-26T10:12:57.854Z,36.75
2022-08-26T10:15:29.038Z,36.62
2022-08-26T10:18:05.671Z,36.17
2022-08-26T10:20:39.386Z,35.55
2022-08-26T10:23:14.660Z,36.42
2022-08-26T10:25:48.412Z,35.17
2022-08-26T10:28:28.213Z,34.73
2022-08-26T10:31:02.406Z,34.59
2022-08-26T10:33:30.490Z,34.57
2022-08-26T10:36:02.975Z,34.21
2022-08-26T10:38:35.760Z,34.43
2022-08-26T10:41:10.647Z,34.02
2022-08-26T10:43:45.932Z,33.31
2022-08-26T10:46:22.479Z,34.02
2022-08-26T10:48:59.933Z,33.42
2022-08-26T10:51:35.678Z,32.82
2022-08-26T10:54:11.880Z,33.43
2022-08-26T10:56:47.291Z,33.53
2022-08-26T10:59:25.240Z,33.21
2022-08-26T11:02:04.582Z,33.37
2022-08-26T11:04:48.370Z,33.68
2022-08-26T11:07:46.132Z,33.28
2022-08-26T11:11:04.829Z,33.10
2022-08-26T11:14:01.689Z,33.00
2022-08-26T11:16:35.086Z,34.15
2022-08-26T11:19:03.395Z,33.48
2022-08-26T11:21:52.218Z,33.48
2022-08-26T11:25:11.821Z,33.77
2022-08-26T11:28:05.905Z,34.09
2022-08-26T11:30:56.995Z,34.28
2022-08-26T11:34:00.446Z,34.64
2022-08-26T11:37:01.605Z,34.08
2022-08-26T11:39:38.469Z,33.83
2022-08-26T11:42:22.132Z,33.38
2022-08-26T11:44:52.758Z,33.56
2022-08-26T11:47:29.898Z,34.07
2022-08-26T11:50:12.615Z,34.15
2022-08-26T11:52:40.673Z,34.32
2022-08-26T11:55:11.610Z,34.33
2022-08-26T11:57:45.938Z,34.21
2022-08-26T12:00:33.611Z,33.59
2022-08-26T12:03:08.769Z,34.11
2022-08-26T12:05:44.266Z,34.09
2022-08-26T12:08:16.440Z,34.31
2022-08-26T12:10:44.415Z,34.42
2022-08-26T12:13:22.954Z,33.69
2022-08-26T12:15:57.378Z,33.93
2022-08-26T12:18:28.925Z,32.97
2022-08-26T12:21:00.564Z,33.06
2022-08-26T12:23:41.429Z,32.84
2022-08-26T12:26:14.666Z,32.86
2022-08-26T12:28:47.232Z,33.34
2022-08-26T12:31:26.845Z,32.41
2022-08-26T12:33:56.357Z,32.28
2022-08-26T12:36:31.547Z,33.33
2022-08-26T12:39:08.846Z,33.18
2022-08-26T12:41:50.342Z,32.67
2022-08-26T12:44:59.274Z,32.60
2022-08-26T12:47:42.613Z,32.21
2022-08-26T12:50:18.314Z,32.54
2022-08-26T12:52:57.347Z,32.35
2022-08-26T12:55:29.127Z,32.55
2022-08-26T12:58:21.411Z,32.04
2022-08-26T13:00:50.717Z,32.33
2022-08-26T13:03:43.285Z,31.87
2022-08-26T13:06:16.046Z,31.76
2022-08-26T13:08:45.235Z,31.69
2022-08-26T13:11:18.740Z,31.38
2022-08-26T13:13:47.018Z,31.12
2022-08-26T13:16:15.944Z,30.95
2022-08-26T13:18:45.313Z,30.78
2022-08-26T13:21:17.941Z,31.02
2022-08-26T13:23:46.556Z,31.37
2022-08-26T13:26:15.241Z,31.78
2022-08-26T13:28:43.589Z,31.29
2022-08-26T13:31:13.740Z,30.65
2022-08-26T13:33:43.047Z,30.56
2022-08-26T13:36:13.320Z,29.91
2022-08-26T13:38:41.425Z,30.12
2022-08-26T13:41:17.261Z,30.07
2022-08-26T13:43:56.716Z,30.15
2022-08-26T13:46:27.152Z,30.34
2022-08-26T13:48:55.891Z,30.04
2022-08-26T13:51:26.126Z,29.52
2022-08-26T13:53:55.183Z,29.47
2022-08-26T13:56:23.474Z,29.60
2022-08-26T13:58:51.425Z,29.58
2022-08-26T14:01:19.816Z,29.38
2022-08-26T14:03:47.891Z,29.64
2022-08-26T14:06:16.332Z,29.76
2022-08-26T14:08:46.193Z,29.69
2022-08-26T14:11:14.115Z,29.31
2022-08-26T14:13:42.053Z,28.91
2022-08-26T14:16:13.610Z,28.89
2022-08-26T14:18:47.330Z,28.82
2022-08-26T14:21:18.124Z,28.91
2022-08-26T14:23:47.614Z,29.03
2022-08-26T14:26:27.967Z,28.98
2022-08-26T14:28:57.420Z,29.04
2022-08-26T14:31:27.038Z,28.87
2022-08-26T14:33:57.788Z,28.89
2022-08-26T14:36:32.718Z,29.25
2022-08-26T14:39:06.102Z,28.99
2022-08-26T14:41:35.625Z,28.63
2022-08-26T14:44:06.463Z,29.43
2022-08-26T14:46:39.109Z,28.78
2022-08-26T14:49:10.328Z,28.87
2022-08-26T14:51:38.882Z,29.59
2022-08-26T14:54:13.767Z,29.20
2022-08-26T14:56:45.939Z,29.24
2022-08-26T14:59:15.050Z,29.20
2022-08-26T15:01:43.191Z,29.29
2022-08-26T15:04:11.462Z,29.09
2022-08-26T15:06:40.048Z,28.98
2022-08-26T15:09:09.787Z,28.88
2022-08-26T15:11:37.986Z,28.60
2022-08-26T15:14:06.613Z,28.98
2022-08-26T15:16:35.863Z,29.43
2022-08-26T15:19:05.394Z,28.85
2022-08-26T15:21:33.919Z,29.58
2022-08-26T15:24:02.228Z,29.93
2022-08-26T15:26:32.708Z,29.98
2022-08-26T15:29:04.722Z,30.04
2022-08-26T15:31:34.220Z,30.18
2022-08-26T15:34:04.960Z,29.91
2022-08-26T15:36:33.761Z,29.84
2022-08-26T15:39:02.624Z,29.81
2022-08-26T15:41:32.004Z,31.19
2022-08-26T15:44:04.290Z,32.21
2022-08-26T15:46:32.721Z,33.01
2022-08-26T15:49:00.757Z,33.68
2022-08-26T15:51:30.051Z,34.35
2022-08-26T15:53:58.897Z,35.08
2022-08-26T15:56:27.909Z,35.86
2022-08-26T15:58:57.820Z,36.92
2022-08-26T16:01:28.090Z,37.92
2022-08-26T16:03:56.711Z,38.58
2022-08-26T16:06:27.493Z,39.18
2022-08-26T16:08:56.253Z,40.17
2022-08-26T16:11:24.804Z,40.76
2022-08-26T16:13:52.950Z,41.88
2022-08-26T16:16:22.632Z,42.44
2022-08-26T16:18:50.770Z,41.99
2022-08-26T16:21:21.072Z,42.06
2022-08-26T16:23:49.284Z,41.69
2022-08-26T16:26:19.569Z,41.27
2022-08-26T16:28:48.096Z,40.68
2022-08-26T16:31:17.373Z,40.86
2022-08-26T16:33:46.953Z,41.60
2022-08-26T16:36:15.331Z,42.35
2022-08-26T16:38:47.830Z,43.48
2022-08-26T16:41:15.918Z,44.20
2022-08-26T16:43:43.841Z,44.87
2022-08-26T16:46:14.326Z,45.85
2022-08-26T16:48:42.712Z,46.90
2022-08-26T16:51:16.269Z,47.56
2022-08-26T16:53:44.448Z,48.36
2022-08-26T16:56:15.596Z,49.40
2022-08-26T16:58:43.952Z,50.07
2022-08-26T17:01:11.972Z,50.94
2022-08-26T17:03:40.808Z,51.62
2022-08-26T17:06:09.873Z,52.24
2022-08-26T17:08:40.037Z,53.50
2022-08-26T17:11:08.670Z,53.98
2022-08-26T17:13:39.286Z,55.14
2022-08-26T17:16:17.881Z,55.83
2022-08-26T17:18:45.964Z,56.21
2022-08-26T17:21:15.055Z,56.80
2022-08-26T17:23:45.165Z,57.70
2022-08-26T17:26:13.846Z,58.04
2022-08-26T17:28:42.416Z,58.62
2022-08-26T17:31:12.046Z,59.13
2022-08-26T17:33:40.800Z,59.66
2022-08-26T17:36:10.006Z,60.21
2022-08-26T17:38:39.178Z,60.76
2022-08-26T17:41:10.895Z,61.22
2022-08-26T17:43:39.805Z,61.75
2022-08-26T17:46:10.495Z,62.22
2022-08-26T17:48:39.660Z,62.79
2022-08-26T17:51:09.450Z,63.19
2022-08-26T17:53:37.912Z,63.76
2022-08-26T17:56:09.878Z,63.96
2022-08-26T17:58:38.923Z,64.64
2022-08-26T18:01:08.122Z,65.20
2022-08-26T18:03:36.553Z,65.29
2022-08-26T18:06:10.531Z,66.35
2022-08-26T18:08:40.243Z,66.35
2022-08-26T18:11:14.701Z,67.18
2022-08-26T18:13:47.199Z,67.02
2022-08-26T18:16:16.475Z,67.37
2022-08-26T18:18:45.169Z,67.79
2022-08-26T18:21:15.591Z,68.17
2022-08-26T18:23:43.909Z,68.54
2022-08-26T18:26:18.282Z,68.98
2022-08-26T18:28:46.378Z,69.08
2022-08-26T18:31:15.332Z,69.37
2022-08-26T18:33:44.185Z,69.77
2022-08-26T18:36:18.502Z,70.42
2022-08-26T18:38:47.302Z,70.31
2022-08-26T18:41:21.614Z,70.79
2022-08-26T18:43:50.828Z,70.78
2022-08-26T18:46:20.350Z,71.19
2022-08-26T18:48:50.748Z,71.32
2022-08-26T18:51:21.702Z,71.66
2022-08-26T18:53:49.650Z,71.92
2022-08-26T18:56:19.783Z,72.06
2022-08-26T18:58:48.129Z,72.47
2022-08-26T19:01:17.059Z,72.82
2022-08-26T19:03:45.181Z,72.91
2022-08-26T19:06:16.624Z,73.70
2022-08-26T19:08:45.402Z,73.57
2022-08-26T19:11:32.109Z,73.68
2022-08-26T19:14:07.581Z,73.82
2022-08-26T19:16:37.038Z,74.09
2022-08-26T19:19:05.445Z,74.47
2022-08-26T19:21:34.670Z,74.70
2022-08-26T19:24:05.354Z,75.04
2022-08-26T19:26:35.059Z,75.40
2022-08-26T19:29:03.370Z,75.38
2022-08-26T19:31:31.424Z,75.71
2022-08-26T19:33:59.600Z,75.89
2022-08-26T19:36:28.979Z,76.17
2022-08-26T19:38:57.786Z,76.34
2022-08-26T19:41:37.596Z,76.79
2022-08-26T19:44:13.046Z,76.94
2022-08-26T19:46:41.699Z,77.26
2022-08-26T19:49:09.804Z,77.28
2022-08-26T19:51:37.838Z,77.71
2022-08-26T19:54:06.215Z,77.97
2022-08-26T19:56:35.012Z,78.25
2022-08-26T19:59:03.012Z,78.63
2022-08-26T20:01:32.431Z,78.96
2022-08-26T20:04:00.558Z,79.14
2022-08-26T20:06:28.676Z,79.31
2022-08-26T20:08:56.602Z,79.52
2022-08-26T20:11:25.060Z,79.75
2022-08-26T20:13:53.255Z,80.01
2022-08-26T20:16:21.253Z,80.27
2022-08-26T20:19:08.432Z,80.62
2022-08-26T20:21:39.102Z,80.70
2022-08-26T20:24:10.998Z,81.11
2022-08-26T20:26:40.618Z,81.35
2022-08-26T20:29:09.609Z,81.66
2022-08-26T20:31:38.208Z,81.86
2022-08-26T20:34:08.411Z,82.15
2022-08-26T20:36:36.495Z,82.24
2022-08-26T20:39:06.382Z,82.45
2022-08-26T20:41:34.442Z,82.50
2022-08-26T20:44:03.012Z,82.76
2022-08-26T20:46:31.667Z,82.79
2022-08-26T20:48:59.657Z,82.96
2022-08-26T20:51:30.137Z,83.13
2022-08-26T20:53:58.297Z,83.42
2022-08-26T20:56:26.494Z,83.51
2022-08-26T20:58:58.405Z,83.82
2022-08-26T21:01:30.766Z,83.89
2022-08-26T21:03:58.821Z,84.14
2022-08-26T21:06:26.770Z,84.44
2022-08-26T21:08:57.128Z,85.05
2022-08-26T21:11:26.316Z,85.29
2022-08-26T21:14:15.936Z,85.15
2022-08-26T21:16:43.640Z,84.98
2022-08-26T21:19:13.839Z,85.29
2022-08-26T21:21:42.209Z,85.71
2022-08-26T21:24:12.401Z,86.05
2022-08-26T21:26:40.576Z,86.27
2022-08-26T21:29:09.941Z,86.63
2022-08-26T21:31:45.485Z,87.02
2022-08-26T21:34:17.487Z,87.25
2022-08-26T21:36:45.909Z,87.44
2022-08-26T21:39:15.714Z,87.99
2022-08-26T21:41:45.297Z,88.03
2022-08-26T21:44:15.576Z,88.72
2022-08-26T21:46:45.148Z,88.90
2022-08-26T21:49:15.660Z,89.37
2022-08-26T21:51:46.097Z,89.78
2022-08-26T21:54:16.128Z,90.20
2022-08-26T21:56:47.312Z,90.22
2022-08-26T21:59:17.501Z,90.48
2022-08-26T22:01:45.455Z,90.87
2022-08-26T22:04:13.978Z,91.20
2022-08-26T22:06:44.167Z,91.72
2022-08-26T22:09:13.410Z,92.05
2022-08-26T22:11:43.118Z,92.70
2022-08-26T22:14:11.978Z,92.91
2022-08-26T22:16:40.333Z,93.23
2022-08-26T22:19:10.333Z,93.33
2022-08-26T22:21:42.293Z,93.05
2022-08-26T22:24:12.276Z,92.98
2022-08-26T22:26:40.249Z,93.05
2022-08-26T22:29:09.744Z,93.13
2022-08-26T22:31:38.772Z,92.96
2022-08-26T22:34:09.508Z,93.13
2022-08-26T22:36:43.584Z,93.18
2022-08-26T22:39:13.170Z,92.98
2022-08-26T22:41:42.161Z,92.87
2022-08-26T22:44:12.749Z,93.16
2022-08-26T22:46:41.990Z,93.13
2022-08-26T22:49:10.938Z,93.06
2022-08-26T22:51:38.820Z,93.02
2022-08-26T22:54:08.026Z,93.30
2022-08-26T22:56:36.487Z,93.30
2022-08-26T22:59:05.020Z,93.56
2022-08-26T23:01:36.750Z,93.60
2022-08-26T23:04:06.262Z,93.84
2022-08-26T23:06:36.632Z,93.81
2022-08-26T23:09:05.259Z,93.79
2022-08-26T23:11:33.440Z,93.91
2022-08-26T23:14:02.863Z,94.16
2022-08-26T23:16:39.311Z,94.32
2022-08-26T23:19:08.619Z,94.31
2022-08-26T23:21:37.220Z,94.23
2022-08-26T23:24:06.261Z,94.42
2022-08-26T23:26:34.798Z,94.74
2022-08-26T23:29:03.315Z,94.97
2022-08-26T23:31:31.660Z,95.01
2022-08-26T23:34:14.964Z,95.03
2022-08-26T23:36:43.409Z,95.19
2022-08-26T23:39:14.170Z,95.35
2022-08-26T23:41:42.366Z,95.78
2022-08-26T23:44:10.892Z,95.99
2022-08-26T23:46:38.825Z,95.97
2022-08-26T23:49:08.209Z,96.36
2022-08-26T23:51:53.896Z,96.44
2022-08-26T23:54:21.770Z,96.49
2022-08-26T23:56:50.472Z,96.66
2022-08-26T23:59:18.550Z,96.84
